Main page
METAR-TAF:

METAR-TAF

Airports :

Humberside Airport

Humberside, England

latitude: 53-35N, longitude: 000-21W, elevation: 31 m

Current weather observation

The report was made 19 minutes ago, at 13:50 UTC
Wind 11 kt from the Southwest
Temperature 20°C
Humidity 46%
Pressure 1010 hPa
Visibility 10 km or more
Few clouds at a height of 3500 ft
Scattered clouds at a height of 4000 ft

METAR: EGNJ 161350Z 23011KT 9999 FEW035 SCT040 20/08 Q1010

Time: 15:09 (14:09 UTC)

Forecast

The report was made 3 hours and 9 minutes ago, at 11:00 UTC
Forecast valid from 16 at 12 UTC to 16 at 21 UTC
Wind 12 kt from the West/Southwest
Visibility 10 km or more
Few clouds at a height of 1200 ft
Broken clouds at a height of 3000 ft

TAF: EGNJ 161100Z 1612/1621 25012KT 9999 FEW012 BKN030

Weather observations and forecasts of more than 4000 airports (METAR and TAF reports).

The available stations are represented by yellow and red dots on the map.

Hover mouse over dot to see the name of the station.

Then click to see weather observations and forecasts.

To change the map : click on the green buttons with a black cross to zoom in, on the green button with a dash to zoom out, or on the green arrows for adjacent maps.


METAR-TAF: